createdAt,value
2022-08-16T00:02:30.956Z,100070.59
2022-08-16T00:07:37.158Z,100067.05
2022-08-16T00:12:43.119Z,100072.61
2022-08-16T00:17:56.526Z,100063.89
2022-08-16T00:22:56.615Z,100057.95
2022-08-16T00:28:03.720Z,100052.02
2022-08-16T00:33:10.105Z,100053.08
2022-08-16T00:38:40.718Z,100055.69
2022-08-16T00:43:42.901Z,100064.59
2022-08-16T00:48:45.660Z,100072.80
2022-08-16T00:53:53.866Z,100088.16
2022-08-16T00:59:01.240Z,100081.19
2022-08-16T01:04:29.245Z,100087.67
2022-08-16T01:09:15.822Z,100085.20
2022-08-16T01:14:30.218Z,100085.59
2022-08-16T01:19:42.143Z,100084.56
2022-08-16T01:24:55.623Z,100092.45
2022-08-16T01:30:28.063Z,100089.22
2022-08-16T01:35:40.025Z,100087.73
2022-08-16T01:40:48.563Z,100088.78
2022-08-16T01:45:59.994Z,100093.73
2022-08-16T01:51:16.736Z,100090.30
2022-08-16T01:56:23.354Z,100091.31
2022-08-16T02:01:28.128Z,100089.95
2022-08-16T02:06:38.005Z,100098.63
2022-08-16T02:11:48.256Z,100090.30
2022-08-16T02:16:53.213Z,100099.66
2022-08-16T02:22:08.976Z,100098.27
2022-08-16T02:27:07.627Z,100098.78
2022-08-16T02:32:50.537Z,100106.44
2022-08-16T02:37:24.078Z,100114.27
2022-08-16T02:42:33.127Z,100113.23
2022-08-16T02:48:00.606Z,100110.17
2022-08-16T02:52:50.272Z,100115.97
2022-08-16T02:57:56.262Z,100125.87
2022-08-16T03:03:03.777Z,100119.41
2022-08-16T03:08:50.402Z,100124.17
2022-08-16T03:13:21.177Z,100122.81
2022-08-16T03:18:40.283Z,100129.45
2022-08-16T03:23:36.451Z,100144.58
2022-08-16T03:28:43.269Z,100141.34
2022-08-16T03:33:52.156Z,100142.06
2022-08-16T03:38:58.089Z,100139.52
2022-08-16T03:44:04.060Z,100145.80
2022-08-16T03:49:13.126Z,100149.88
2022-08-16T03:54:20.526Z,100153.63
2022-08-16T03:59:29.913Z,100154.13
2022-08-16T04:04:37.071Z,100165.18
2022-08-16T04:09:43.054Z,100160.76
2022-08-16T04:14:49.522Z,100171.98
2022-08-16T04:19:58.368Z,100184.71
2022-08-16T04:25:08.211Z,100191.68
2022-08-16T04:30:31.977Z,100188.96
2022-08-16T04:35:34.181Z,100189.13
2022-08-16T04:40:38.276Z,100187.09
2022-08-16T04:45:47.789Z,100189.14
2022-08-16T04:50:57.317Z,100188.59
2022-08-16T04:56:11.998Z,100193.98
2022-08-16T05:01:18.834Z,100193.90
2022-08-16T05:06:42.224Z,100193.39
2022-08-16T05:11:32.344Z,100212.80
2022-08-16T05:16:39.213Z,100217.55
2022-08-16T05:21:46.520Z,100201.64
2022-08-16T05:26:52.289Z,100200.73
2022-08-16T05:31:58.577Z,100210.85
2022-08-16T05:37:04.908Z,100205.00
2022-08-16T05:42:12.258Z,100204.53
2022-08-16T05:47:18.532Z,100208.53
2022-08-16T05:52:27.894Z,100207.09
2022-08-16T05:57:35.603Z,100206.33
2022-08-16T06:02:41.689Z,100212.89
2022-08-16T06:08:05.986Z,100221.56
2022-08-16T06:13:13.391Z,100218.36
2022-08-16T06:18:21.514Z,100218.47
2022-08-16T06:23:28.823Z,100220.51
2022-08-16T06:28:37.664Z,100234.50
2022-08-16T06:33:46.917Z,100241.44
2022-08-16T06:38:56.625Z,100250.14
2022-08-16T06:44:04.290Z,100252.72
2022-08-16T06:49:13.547Z,100267.25
2022-08-16T06:54:20.233Z,100266.27
2022-08-16T06:59:26.133Z,100271.75
2022-08-16T07:04:37.107Z,100278.03
2022-08-16T07:09:49.753Z,100279.44
2022-08-16T07:14:59.996Z,100282.39
2022-08-16T07:20:34.889Z,100285.55
2022-08-16T07:25:17.231Z,100283.12
2022-08-16T07:30:39.636Z,100289.04
2022-08-16T07:35:32.048Z,100289.56
2022-08-16T07:41:00.117Z,100303.92
2022-08-16T07:45:53.122Z,100309.53
2022-08-16T07:50:59.708Z,100309.30
2022-08-16T07:56:04.456Z,100308.66
2022-08-16T08:01:24.817Z,100321.64
2022-08-16T08:06:34.359Z,100317.45
2022-08-16T08:12:00.717Z,100317.95
2022-08-16T08:16:53.775Z,100316.23
2022-08-16T08:22:05.860Z,100314.02
2022-08-16T08:27:10.637Z,100320.40
2022-08-16T08:32:46.746Z,100327.67
2022-08-16T08:37:24.261Z,100330.16
2022-08-16T08:42:31.800Z,100334.88
2022-08-16T08:47:39.824Z,100333.76
2022-08-16T08:52:48.319Z,100336.58
2022-08-16T08:57:54.402Z,100343.70
2022-08-16T09:03:04.831Z,100340.98
2022-08-16T09:08:17.359Z,100341.33
2022-08-16T09:13:23.362Z,100346.83
2022-08-16T09:18:35.723Z,100346.62
2022-08-16T09:23:37.750Z,100351.63
2022-08-16T09:29:14.985Z,100356.47
2022-08-16T09:33:54.925Z,100352.90
2022-08-16T09:39:03.778Z,100346.39
2022-08-16T09:45:11.952Z,100345.09
2022-08-16T09:49:19.896Z,100345.19
2022-08-16T09:54:32.409Z,100346.57
2022-08-16T09:59:38.517Z,100347.41
2022-08-16T10:04:54.496Z,100350.70
2022-08-16T10:09:55.492Z,100349.00
2022-08-16T10:14:59.824Z,100348.80
2022-08-16T10:20:06.784Z,100346.94
2022-08-16T10:27:19.481Z,100355.45
2022-08-16T10:30:26.141Z,100355.25
2022-08-16T10:35:32.930Z,100347.84
2022-08-16T10:40:36.018Z,100355.50
2022-08-16T10:45:43.239Z,100354.77
2022-08-16T10:50:51.471Z,100357.23
2022-08-16T10:56:01.430Z,100351.52
2022-08-16T11:06:21.453Z,100355.95
2022-08-16T11:11:26.949Z,100345.48
2022-08-16T11:32:04.641Z,100365.15
2022-08-16T11:37:27.271Z,100372.92
2022-08-16T11:42:28.205Z,100363.13
2022-08-16T11:47:27.291Z,100368.34
2022-08-16T11:52:34.041Z,100360.88
2022-08-16T11:57:41.387Z,100369.04
2022-08-16T12:02:47.960Z,100370.42
2022-08-16T12:07:55.389Z,100372.50
2022-08-16T12:13:02.733Z,100373.49
2022-08-16T12:18:09.691Z,100372.23
2022-08-16T12:23:15.249Z,100369.23
2022-08-16T12:28:37.054Z,100367.01
2022-08-16T12:33:32.019Z,100370.70
2022-08-16T12:38:46.772Z,100363.58
2022-08-16T12:43:46.619Z,100371.09
2022-08-16T12:48:58.916Z,100362.86
2022-08-16T12:54:07.594Z,100359.71
2022-08-16T12:59:19.769Z,100364.16
2022-08-16T13:04:24.695Z,100350.94
2022-08-16T13:09:31.660Z,100351.93
2022-08-16T13:14:41.517Z,100348.99
2022-08-16T13:24:56.542Z,100343.26
2022-08-16T13:30:02.758Z,100349.47
2022-08-16T13:35:11.690Z,100349.77
2022-08-16T13:40:19.655Z,100335.92
2022-08-16T13:45:26.275Z,100338.91
2022-08-16T13:50:49.355Z,100331.61
2022-08-16T13:55:40.927Z,100341.52
2022-08-16T14:00:46.751Z,100331.39
2022-08-16T14:05:54.053Z,100335.06
2022-08-16T14:10:59.619Z,100331.20
2022-08-16T14:16:12.643Z,100338.61
2022-08-16T14:21:13.306Z,100328.20
2022-08-16T14:26:19.954Z,100332.77
2022-08-16T14:31:27.086Z,100322.42
2022-08-16T14:36:34.025Z,100318.34
2022-08-16T14:41:40.976Z,100317.11
2022-08-16T14:46:46.556Z,100317.65
2022-08-16T14:51:52.330Z,100320.41
2022-08-16T14:56:58.318Z,100320.64
2022-08-16T15:02:05.169Z,100314.50
2022-08-16T15:07:12.715Z,100310.59
2022-08-16T15:12:27.077Z,100309.97
2022-08-16T15:17:34.053Z,100316.73
2022-08-16T15:22:39.345Z,100319.26
2022-08-16T15:27:54.672Z,100325.09
2022-08-16T15:32:57.427Z,100327.05
2022-08-16T15:38:08.909Z,100320.78
2022-08-16T15:43:11.990Z,100320.02
2022-08-16T15:48:17.815Z,100331.49
2022-08-16T15:53:27.584Z,100334.70
2022-08-16T15:58:38.625Z,100333.58
2022-08-16T16:03:42.233Z,100342.61
2022-08-16T16:08:49.103Z,100346.05
2022-08-16T16:13:56.693Z,100349.52
2022-08-16T16:19:03.109Z,100353.23
2022-08-16T16:24:21.028Z,100355.77
2022-08-16T16:29:16.253Z,100357.00
2022-08-16T16:34:23.858Z,100356.92
2022-08-16T16:39:32.647Z,100362.13
2022-08-16T16:44:38.783Z,100361.16
2022-08-16T16:49:45.983Z,100367.06
2022-08-16T16:54:51.489Z,100364.58
2022-08-16T16:59:58.778Z,100373.22
2022-08-16T17:05:08.494Z,100383.28
2022-08-16T17:10:14.288Z,100382.08
2022-08-16T17:15:23.337Z,100393.64
2022-08-16T17:20:30.120Z,100399.28
2022-08-16T17:30:45.074Z,100404.22
2022-08-16T17:35:55.179Z,100417.06
2022-08-16T17:39:26.769Z,100404.09
2022-08-16T17:41:00.570Z,100408.97
2022-08-16T17:46:41.427Z,100418.37
2022-08-16T17:51:15.724Z,100421.58
2022-08-16T17:56:21.484Z,100420.88
2022-08-16T18:01:28.315Z,100421.80
2022-08-16T18:06:33.834Z,100431.95
2022-08-16T18:11:41.110Z,100441.48
2022-08-16T18:16:49.345Z,100445.48
2022-08-16T18:22:16.119Z,100440.78
2022-08-16T18:27:25.646Z,100447.16
2022-08-16T18:32:30.662Z,100442.70
2022-08-16T18:37:36.195Z,100446.84
2022-08-16T18:42:43.462Z,100446.96
2022-08-16T18:47:49.267Z,100451.98
2022-08-16T18:52:58.086Z,100457.50
2022-08-16T18:58:04.085Z,100457.58
2022-08-16T19:03:19.375Z,100456.07
2022-08-16T19:08:25.052Z,100469.17
2022-08-16T19:13:33.566Z,100468.75
2022-08-16T19:18:39.242Z,100474.23
2022-08-16T19:23:45.535Z,100473.94
2022-08-16T19:28:59.018Z,100478.55
2022-08-16T19:33:59.931Z,100478.38
2022-08-16T19:39:11.465Z,100493.73
2022-08-16T19:44:20.288Z,100498.23
2022-08-16T19:49:25.941Z,100496.86
2022-08-16T19:54:31.534Z,100499.26
2022-08-16T19:59:40.963Z,100494.41
2022-08-16T20:04:48.661Z,100491.67
2022-08-16T20:09:54.666Z,100497.34
2022-08-16T20:15:00.225Z,100418.36
2022-08-16T20:20:08.144Z,100498.37
2022-08-16T20:25:18.820Z,100494.94
2022-08-16T20:30:24.844Z,100506.30
2022-08-16T20:35:30.868Z,100507.78
2022-08-16T20:40:36.734Z,100504.72
2022-08-16T20:45:45.190Z,100514.44
2022-08-16T20:50:50.864Z,100509.28
2022-08-16T20:55:56.865Z,100519.77
2022-08-16T21:01:03.528Z,100524.01
2022-08-16T21:06:09.372Z,100518.05
2022-08-16T21:11:16.482Z,100513.70
2022-08-16T21:16:22.656Z,100520.91
2022-08-16T21:21:32.013Z,100515.84
2022-08-16T21:26:38.855Z,100512.81
2022-08-16T21:31:44.776Z,100515.97
2022-08-16T21:36:50.442Z,100514.67
2022-08-16T21:41:55.922Z,100516.82
2022-08-16T21:47:01.471Z,100512.75
2022-08-16T21:52:08.756Z,100519.48
2022-08-16T21:57:14.341Z,100518.83
2022-08-16T22:02:22.686Z,100521.56
2022-08-16T22:07:28.331Z,100525.52
2022-08-16T22:12:34.121Z,100533.22
2022-08-16T22:17:40.596Z,100532.25
2022-08-16T22:22:48.542Z,100537.09
2022-08-16T22:27:54.177Z,100551.14
2022-08-16T22:32:59.848Z,100541.30
2022-08-16T22:38:55.242Z,100537.98
2022-08-16T22:43:14.364Z,100542.57
2022-08-16T22:48:20.138Z,100567.92
2022-08-16T22:53:27.122Z,100549.84
2022-08-16T22:58:36.317Z,100561.61
2022-08-16T23:03:40.161Z,100558.39
2022-08-16T23:08:46.068Z,100560.27
2022-08-16T23:13:54.862Z,100552.81
2022-08-16T23:19:00.783Z,100556.05
2022-08-16T23:24:07.024Z,100557.84
2022-08-16T23:29:22.484Z,100552.55
2022-08-16T23:34:19.938Z,100558.36
2022-08-16T23:39:25.965Z,100554.27
2022-08-16T23:44:41.890Z,100553.92
2022-08-16T23:49:57.594Z,100540.67
2022-08-16T23:54:46.496Z,100535.86
2022-08-16T23:59:53.758Z,100530.91
